createdAt,value
2022-10-21T02:11:22.511Z,13.10
2022-10-21T02:44:12.973Z,13.10
2022-10-21T02:54:11.428Z,13.30
2022-10-21T03:26:36.062Z,13.50
2022-10-21T03:29:04.001Z,13.40
2022-10-21T03:31:31.976Z,13.40
2022-10-21T03:33:59.928Z,13.30
2022-10-21T04:26:11.530Z,13.90
2022-10-21T05:08:33.926Z,14.60
2022-10-21T05:18:31.215Z,14.70
2022-10-21T05:25:58.650Z,14.80
2022-10-21T05:28:26.734Z,14.80
2022-10-21T05:33:23.474Z,14.90
2022-10-21T05:35:58.492Z,14.70
2022-10-21T05:38:26.454Z,14.80
2022-10-21T05:40:56.990Z,14.80
2022-10-21T05:43:25.717Z,14.70
2022-10-21T05:45:53.650Z,14.80
2022-10-21T05:48:21.728Z,14.90
2022-10-21T05:50:53.848Z,14.80
2022-10-21T05:53:23.694Z,14.90
2022-10-21T05:56:00.461Z,14.90
2022-10-21T06:00:58.528Z,14.90
2022-10-21T06:03:29.945Z,15.30
2022-10-21T06:05:58.243Z,14.90
2022-10-21T06:08:26.394Z,14.90
2022-10-21T06:16:00.102Z,15.10
2022-10-21T06:18:28.963Z,15.00
2022-10-21T06:20:56.938Z,14.60
2022-10-21T06:23:25.126Z,15.60
2022-10-21T06:30:56.041Z,15.00
2022-10-21T06:33:26.964Z,15.00
2022-10-21T06:38:24.158Z,14.90
2022-10-21T06:40:52.123Z,14.90
2022-10-21T06:43:20.300Z,14.90
2022-10-21T06:45:49.613Z,14.90
2022-10-21T06:48:17.563Z,15.00
2022-10-21T06:50:45.523Z,15.10
2022-10-21T06:53:13.479Z,14.70
2022-10-21T06:55:41.445Z,15.00
2022-10-21T07:00:38.786Z,15.10
2022-10-21T07:03:08.154Z,15.10
2022-10-21T07:37:53.122Z,15.30
2022-10-21T07:40:21.100Z,15.50
2022-10-21T07:50:15.057Z,15.70
2022-10-21T07:52:53.459Z,15.70
2022-10-21T08:02:58.485Z,15.70
2022-10-21T08:05:26.419Z,15.60
2022-10-21T08:07:54.363Z,15.70
2022-10-21T08:15:20.927Z,15.80
2022-10-21T08:17:48.908Z,15.70
2022-10-21T08:22:45.200Z,15.80
2022-10-21T08:27:44.690Z,15.80
2022-10-21T08:32:43.486Z,15.70
2022-10-21T08:35:11.430Z,15.80
2022-10-21T08:37:39.447Z,15.70
2022-10-21T08:40:09.194Z,15.70
2022-10-21T08:50:18.147Z,15.80
2022-10-21T08:52:49.153Z,15.70
2022-10-21T08:57:51.453Z,15.60
2022-10-21T09:05:38.436Z,15.90
2022-10-21T19:27:39.643Z,14.60
2022-10-21T19:42:35.310Z,14.80
2022-10-21T20:02:27.355Z,14.90
2022-10-21T20:14:50.013Z,15.10
2022-10-21T20:17:19.378Z,15.00
2022-10-21T20:19:48.514Z,15.00
2022-10-21T20:29:42.977Z,15.00
2022-10-21T20:39:39.698Z,14.90
2022-10-21T20:49:33.698Z,14.70
2022-10-21T20:54:33.341Z,14.70
2022-10-21T20:59:29.637Z,14.70
2022-10-21T21:01:57.654Z,14.80
2022-10-21T21:04:25.697Z,14.80
2022-10-21T21:06:53.813Z,14.80
2022-10-21T21:10:01.096Z,14.80
2022-10-21T21:12:11.438Z,14.80
2022-10-21T21:14:39.514Z,14.80
2022-10-21T21:19:36.253Z,14.80
2022-10-21T21:22:04.975Z,14.80
2022-10-21T21:24:34.505Z,14.90
2022-10-21T21:29:33.028Z,14.90
2022-10-21T21:32:00.957Z,14.90
2022-10-21T21:34:28.919Z,14.90
2022-10-21T21:39:25.255Z,15.00
2022-10-21T21:41:54.779Z,14.70
2022-10-21T21:44:22.696Z,14.60
2022-10-21T21:46:50.690Z,14.70
2022-10-21T21:49:19.017Z,14.60
2022-10-21T21:51:46.968Z,14.60
2022-10-21T21:56:43.984Z,14.60
2022-10-21T21:59:13.309Z,14.60
2022-10-21T22:01:41.282Z,14.70
2022-10-21T22:04:09.259Z,14.50
2022-10-21T22:06:38.734Z,14.50
2022-10-21T22:09:11.502Z,14.50
2022-10-21T22:14:08.693Z,14.60
2022-10-21T22:19:06.782Z,14.70
2022-10-21T22:21:34.754Z,14.60
2022-10-21T22:24:02.702Z,14.70
2022-10-21T22:26:30.767Z,14.60
2022-10-21T22:28:58.765Z,14.50
2022-10-21T22:31:29.510Z,14.60
2022-10-21T22:34:00.879Z,14.90
2022-10-21T22:36:28.990Z,14.60
2022-10-21T22:38:56.989Z,14.60
2022-10-21T22:41:24.974Z,14.50
2022-10-21T22:43:52.978Z,14.30
2022-10-21T22:46:33.401Z,14.30
2022-10-21T22:49:04.291Z,14.30
2022-10-21T22:51:32.330Z,14.30
2022-10-21T22:54:01.238Z,14.30
2022-10-21T22:56:29.368Z,14.20
2022-10-21T22:58:57.788Z,14.20
2022-10-21T23:01:28.766Z,14.10
2022-10-21T23:03:57.166Z,14.10
2022-10-21T23:06:26.463Z,14.20
2022-10-21T23:11:23.054Z,14.10
2022-10-21T23:14:02.435Z,14.10
2022-10-21T23:16:31.975Z,14.20
2022-10-21T23:19:00.301Z,13.90
2022-10-21T23:21:30.106Z,13.90
2022-10-21T23:23:58.098Z,14.10
2022-10-21T23:26:26.304Z,13.80
2022-10-21T23:28:54.259Z,13.70
2022-10-21T23:31:22.566Z,14.00
2022-10-21T23:33:50.564Z,13.40
2022-10-21T23:36:18.736Z,13.40
2022-10-21T23:38:48.064Z,13.60
2022-10-21T23:41:17.375Z,13.70
2022-10-21T23:43:45.341Z,13.70
2022-10-21T23:46:13.351Z,13.80
2022-10-21T23:48:41.355Z,13.80
2022-10-21T23:51:09.437Z,13.70
2022-10-21T23:53:37.405Z,13.80
2022-10-21T23:56:07.634Z,13.80
2022-10-21T23:58:35.570Z,13.80
